Time;durP1;ratioP1;P1;durP2;ratioP2;P2;SDS_P1;SDS_P2;PMS_P1;PMS_P2;Temp;Humidity;BMP_temperature;BMP_pressure;BME280_temperature;BME280_humidity;BME280_pressure;Samples;Min_cycle;Max_cycle;Signal;HPM_P1;HPM_P2
2022/08/25 00:02:28;;;;;;;9.35;4.47;;;21.50;99.90;;;;;;5215157;28;20021;-61
2022/08/25 00:05:06;;;;;;;6.97;5.60;;;21.50;99.90;;;;;;5156062;28;20043;-66
2022/08/25 00:07:37;;;;;;;8.48;5.50;;;21.40;99.90;;;;;;5197739;28;20051;-62
2022/08/25 00:10:11;;;;;;;17.17;5.70;;;21.50;99.90;;;;;;5230795;28;20021;-61
2022/08/25 00:12:48;;;;;;;;;;;21.50;99.90;;;;;;5199877;28;20025;-62
2022/08/25 00:15:21;;;;;;;11.60;6.07;;;21.40;99.90;;;;;;5182070;28;19909;-62
2022/08/25 00:17:53;;;;;;;11.10;5.75;;;21.40;99.90;;;;;;5199072;28;20025;-61
2022/08/25 00:20:28;;;;;;;11.63;6.63;;;21.40;99.90;;;;;;5183453;28;20032;-62
2022/08/25 00:23:02;;;;;;;11.02;6.45;;;21.40;99.90;;;;;;5185528;28;20031;-62
2022/08/25 00:25:36;;;;;;;16.83;6.50;;;21.40;99.90;;;;;;5186257;28;20047;-62
2022/08/25 00:28:09;;;;;;;9.35;5.55;;;21.30;99.90;;;;;;5182628;28;20187;-62
2022/08/25 00:30:40;;;;;;;7.85;5.40;;;21.30;99.90;;;;;;5198775;28;20029;-62
2022/08/25 00:33:12;;;;;;;12.13;6.82;;;21.30;99.90;;;;;;5221094;28;20270;-62
2022/08/25 00:35:43;;;;;;;10.40;6.03;;;21.30;99.90;;;;;;5209827;28;20027;-62
2022/08/25 00:38:18;;;;;;;8.57;6.13;;;21.30;99.90;;;;;;5186104;28;20255;-61
2022/08/25 00:41:13;;;;;;;8.77;5.97;;;21.30;99.90;;;;;;5202853;28;20044;-62
2022/08/25 00:43:51;;;;;;;7.97;5.78;;;21.20;99.90;;;;;;5215464;28;20028;-62
2022/08/25 00:46:34;;;;;;;13.43;5.93;;;21.30;99.90;;;;;;5182019;28;20054;-61
2022/08/25 00:49:19;;;;;;;11.02;5.30;;;21.30;99.90;;;;;;5216237;28;20309;-62
2022/08/25 00:52:16;;;;;;;13.20;5.78;;;21.30;99.90;;;;;;5198887;28;20036;-62
2022/08/25 00:54:58;;;;;;;8.88;5.78;;;21.30;99.90;;;;;;5214481;28;20037;-61
2022/08/25 00:57:36;;;;;;;10.02;6.35;;;21.30;99.90;;;;;;5181870;28;20035;-62
2022/08/25 01:00:36;;;;;;;11.63;6.07;;;21.30;99.90;;;;;;5216492;28;20325;-62
2022/08/25 01:03:11;;;;;;;8.93;5.28;;;21.20;99.90;;;;;;5215649;28;20029;-62
2022/08/25 01:05:43;;;;;;;10.80;5.72;;;21.30;99.90;;;;;;5176574;28;20056;-61
2022/08/25 01:08:21;;;;;;;12.85;6.97;;;21.30;99.90;;;;;;5203401;28;20033;-61
2022/08/25 01:10:55;;;;;;;8.05;5.60;;;21.30;99.90;;;;;;5203105;28;20036;-63
2022/08/25 01:13:37;;;;;;;;;;;21.30;99.90;;;;;;5187316;28;20286;-62
2022/08/25 01:16:10;;;;;;;13.82;6.97;;;21.30;99.90;;;;;;5198197;28;20060;-63
2022/08/25 01:18:47;;;;;;;10.50;6.60;;;21.30;99.90;;;;;;5198532;28;20043;-63
2022/08/25 01:21:27;;;;;;;11.23;5.90;;;21.30;99.90;;;;;;5182365;28;20766;-62
2022/08/25 01:24:02;;;;;;;9.55;5.55;;;21.20;99.90;;;;;;5225563;28;20183;-61
2022/08/25 01:26:34;;;;;;;12.30;6.10;;;21.20;99.90;;;;;;5226832;28;20043;-61
2022/08/25 01:29:24;;;;;;;17.13;7.30;;;21.20;99.90;;;;;;5204538;28;20029;-62
2022/08/25 01:32:07;;;;;;;6.85;5.20;;;21.20;99.90;;;;;;5173879;28;20127;-63
2022/08/25 01:34:44;;;;;;;10.10;5.78;;;21.10;99.90;;;;;;5223313;28;20025;-61
2022/08/25 01:37:19;;;;;;;7.90;5.60;;;21.10;99.90;;;;;;5215659;28;20238;-62
2022/08/25 01:39:50;;;;;;;9.43;5.60;;;21.10;99.90;;;;;;5196849;28;20040;-62
2022/08/25 01:42:42;;;;;;;9.70;5.60;;;21.10;99.90;;;;;;5217125;28;20033;-62
2022/08/25 01:45:14;;;;;;;9.65;5.72;;;21.10;99.90;;;;;;5195465;28;20040;-62
2022/08/25 01:47:45;;;;;;;9.63;6.35;;;21.10;99.90;;;;;;5194653;28;20040;-62
2022/08/25 01:50:37;;;;;;;10.55;6.00;;;21.10;99.90;;;;;;5216075;28;20028;-64
2022/08/25 01:53:13;;;;;;;12.90;6.47;;;21.10;99.90;;;;;;5184528;28;20028;-62
2022/08/25 01:55:50;;;;;;;10.90;6.10;;;21.10;99.90;;;;;;5196647;28;20030;-62
2022/08/25 01:58:27;;;;;;;7.93;5.60;;;21.10;99.90;;;;;;5203782;28;20134;-62
2022/08/25 02:01:01;;;;;;;9.38;5.65;;;21.10;99.90;;;;;;5224716;28;20035;-62
2022/08/25 02:03:37;;;;;;;14.75;6.95;;;21.10;99.90;;;;;;5185017;28;20029;-62
2022/08/25 02:06:12;;;;;;;7.70;5.80;;;21.10;99.90;;;;;;5192271;28;20036;-62
2022/08/25 02:08:50;;;;;;;9.15;6.00;;;21.10;99.90;;;;;;5219788;28;20279;-62
2022/08/25 02:11:22;;;;;;;10.25;6.32;;;21.10;99.90;;;;;;5234613;28;20178;-61
2022/08/25 02:13:54;;;;;;;8.88;6.03;;;21.00;99.90;;;;;;5223645;28;20033;-61
2022/08/25 02:16:30;;;;;;;13.57;6.13;;;21.00;99.90;;;;;;5221135;28;20028;-61
2022/08/25 02:19:11;;;;;;;11.93;6.53;;;21.00;99.90;;;;;;5240490;28;20030;-62
2022/08/25 02:21:48;;;;;;;9.10;5.50;;;21.00;99.90;;;;;;5222619;28;20217;-62
2022/08/25 02:24:19;;;;;;;11.38;5.75;;;21.00;99.90;;;;;;5221809;28;20050;-62
2022/08/25 02:26:50;;;;;;;9.60;5.63;;;21.00;99.90;;;;;;5223129;28;20380;-63
2022/08/25 02:29:22;;;;;;;7.35;5.25;;;21.00;99.90;;;;;;5190170;28;20681;-62
2022/08/25 02:31:54;;;;;;;9.68;5.95;;;21.00;99.90;;;;;;5207497;28;20031;-62
2022/08/25 02:34:27;;;;;;;12.88;6.03;;;21.00;99.90;;;;;;5220019;28;20199;-62
2022/08/25 02:36:58;;;;;;;13.17;6.30;;;21.10;99.90;;;;;;5219360;28;20020;-63
2022/08/25 02:39:33;;;;;;;12.40;5.50;;;21.10;99.90;;;;;;5200574;28;20378;-62
2022/08/25 02:42:07;;;;;;;12.68;6.68;;;21.00;99.90;;;;;;5167804;28;20029;-63
2022/08/25 02:44:41;;;;;;;12.30;6.13;;;21.00;99.90;;;;;;5200781;28;20035;-61
2022/08/25 02:47:15;;;;;;;8.18;5.95;;;21.00;99.90;;;;;;5195578;28;20028;-63
2022/08/25 02:49:47;;;;;;;8.73;5.50;;;21.00;99.90;;;;;;5204787;28;20043;-61
2022/08/25 02:52:19;;;;;;;11.30;6.35;;;21.00;99.90;;;;;;5219740;28;20028;-61
2022/08/25 02:54:52;;;;;;;8.15;6.68;;;21.00;99.90;;;;;;5218514;28;20008;-63
2022/08/25 02:57:29;;;;;;;11.00;6.75;;;21.00;99.90;;;;;;5188413;28;20257;-63
2022/08/25 03:00:08;;;;;;;9.77;7.10;;;21.10;99.90;;;;;;5198031;28;20024;-62
2022/08/25 03:02:42;;;;;;;15.02;6.95;;;21.00;99.90;;;;;;5226893;28;20024;-62
2022/08/25 03:05:16;;;;;;;;;;;21.00;99.90;;;;;;5217026;28;20179;-62
2022/08/25 03:07:48;;;;;;;10.60;5.70;;;21.10;99.90;;;;;;5182855;28;19900;-62
2022/08/25 03:10:19;;;;;;;9.60;6.88;;;21.00;99.90;;;;;;5217406;28;20225;-62
2022/08/25 03:12:55;;;;;;;11.68;6.65;;;21.10;99.90;;;;;;5198104;28;20025;-61
2022/08/25 03:15:27;;;;;;;10.98;6.57;;;21.00;99.90;;;;;;5197438;28;20020;-62
2022/08/25 03:18:01;;;;;;;11.85;6.25;;;21.00;99.90;;;;;;5162638;28;20030;-62
2022/08/25 03:20:36;;;;;;;9.20;5.93;;;20.90;99.90;;;;;;5215123;28;20051;-62
2022/08/25 03:23:07;;;;;;;10.57;6.57;;;20.80;99.90;;;;;;5201964;28;20232;-62
2022/08/25 03:28:35;;;;;;;14.60;7.53;;;20.70;99.90;;;;;;5197937;28;20029;-61
2022/08/25 03:31:10;;;;;;;11.95;7.68;;;20.60;99.90;;;;;;5162630;28;20037;-61
2022/08/25 03:33:41;;;;;;;9.93;6.55;;;20.40;99.90;;;;;;5210152;28;20413;-62
2022/08/25 03:36:13;;;;;;;10.68;7.00;;;20.40;99.90;;;;;;5197193;28;20040;-62
2022/08/25 03:38:49;;;;;;;10.32;7.47;;;20.30;99.90;;;;;;5200698;28;20210;-62
2022/08/25 03:41:29;;;;;;;12.80;7.50;;;20.20;99.90;;;;;;5182614;28;20032;-62
2022/08/25 03:44:07;;;;;;;13.75;8.23;;;20.20;99.90;;;;;;5202758;28;20031;-61
2022/08/25 03:46:49;;;;;;;14.70;7.65;;;20.20;99.90;;;;;;5182168;28;20355;-62
2022/08/25 03:49:24;;;;;;;12.05;7.95;;;20.20;99.90;;;;;;5198576;28;20047;-62
2022/08/25 03:51:55;;;;;;;12.75;8.27;;;20.20;99.90;;;;;;5201622;28;20043;-62
2022/08/25 03:54:31;;;;;;;12.73;7.32;;;20.30;99.90;;;;;;5223724;28;20229;-62
2022/08/25 03:57:08;;;;;;;13.05;7.35;;;20.30;99.90;;;;;;5190237;28;20032;-62
2022/08/25 03:59:42;;;;;;;17.55;7.07;;;20.30;99.90;;;;;;5218876;28;20033;-62
2022/08/25 04:02:26;;;;;;;11.68;7.00;;;20.30;99.90;;;;;;5208309;28;20521;-62
2022/08/25 04:05:03;;;;;;;12.93;6.55;;;20.40;99.90;;;;;;5188300;28;20049;-62
2022/08/25 04:07:35;;;;;;;10.00;7.18;;;20.40;99.90;;;;;;5209566;28;20043;-61
2022/08/25 04:10:09;;;;;;;13.80;7.03;;;20.40;99.90;;;;;;5198965;28;20025;-62
2022/08/25 04:12:48;;;;;;;12.30;7.15;;;20.40;99.90;;;;;;5209890;28;20020;-62
2022/08/25 04:15:19;;;;;;;11.38;7.65;;;20.40;99.90;;;;;;5177170;28;20048;-61
2022/08/25 04:17:51;;;;;;;14.90;7.38;;;20.40;99.90;;;;;;5196423;28;20311;-62
2022/08/25 04:20:26;;;;;;;10.32;6.22;;;20.40;99.90;;;;;;5178243;28;20041;-62
2022/08/25 04:23:00;;;;;;;9.07;6.72;;;20.40;99.90;;;;;;5192653;28;20035;-62
2022/08/25 04:25:35;;;;;;;12.02;6.78;;;20.50;99.90;;;;;;5225185;28;20291;-62
2022/08/25 04:28:07;;;;;;;10.75;7.00;;;20.50;99.90;;;;;;5225781;28;20023;-61
2022/08/25 04:30:44;;;;;;;9.60;6.00;;;20.50;99.90;;;;;;5198407;28;20028;-62
2022/08/25 04:33:16;;;;;;;10.23;7.75;;;20.60;99.90;;;;;;5198374;28;20147;-66
2022/08/25 04:35:52;;;;;;;8.05;5.65;;;20.60;99.90;;;;;;5230485;28;20025;-62
2022/08/25 04:38:26;;;;;;;10.48;6.57;;;20.70;99.90;;;;;;5233424;28;20345;-62
2022/08/25 04:41:06;;;;;;;12.73;7.45;;;20.70;99.90;;;;;;5232694;28;20339;-64
2022/08/25 04:43:45;;;;;;;11.35;6.97;;;20.70;99.90;;;;;;5184314;28;20029;-62
2022/08/25 04:46:19;;;;;;;10.65;6.32;;;20.80;99.90;;;;;;5194842;28;20017;-62
2022/08/25 04:48:53;;;;;;;8.98;5.70;;;20.90;99.90;;;;;;5176858;28;20202;-62
2022/08/25 04:51:29;;;;;;;12.63;6.82;;;20.90;99.90;;;;;;5195494;28;20017;-63
2022/08/25 04:54:05;;;;;;;9.57;6.88;;;20.90;99.90;;;;;;5204919;28;20881;-63
2022/08/25 04:56:42;;;;;;;13.48;6.40;;;20.90;99.90;;;;;;5217936;28;20212;-62
2022/08/25 04:59:19;;;;;;;9.57;6.05;;;20.80;99.90;;;;;;5197257;28;20047;-63
2022/08/25 05:01:56;;;;;;;9.18;6.80;;;20.70;99.90;;;;;;5215663;28;20019;-62
2022/08/25 05:04:33;;;;;;;10.10;6.82;;;20.70;99.90;;;;;;5171117;28;20041;-63
2022/08/25 05:07:22;;;;;;;10.20;5.95;;;20.80;99.90;;;;;;5180435;28;20213;-63
2022/08/25 05:09:53;;;;;;;9.52;6.70;;;20.90;99.90;;;;;;5214568;28;20028;-63
2022/08/25 05:12:24;;;;;;;12.40;6.78;;;21.00;99.90;;;;;;5232587;28;20021;-63
2022/08/25 05:15:48;;;;;;;9.23;6.55;;;21.10;99.90;;;;;;5215201;28;20033;-63
2022/08/25 05:17:47;;;;;;;11.10;7.10;;;21.20;99.90;;;;;;5215163;28;20024;-62
2022/08/25 05:20:21;;;;;;;8.63;6.22;;;21.30;99.90;;;;;;5214229;28;20405;-63
2022/08/25 05:22:52;;;;;;;16.33;6.97;;;21.30;99.90;;;;;;5186993;28;20028;-63
2022/08/25 05:25:24;;;;;;;12.50;6.90;;;21.40;99.90;;;;;;5200944;28;20047;-63
2022/08/25 05:28:00;;;;;;;9.88;6.97;;;21.50;99.90;;;;;;5197064;28;20035;-63
2022/08/25 05:30:38;;;;;;;12.43;6.93;;;21.50;99.90;;;;;;5179304;28;20214;-63
2022/08/25 05:33:19;;;;;;;9.38;5.80;;;21.50;99.90;;;;;;5180634;28;20337;-64
2022/08/25 05:35:55;;;;;;;8.25;5.75;;;21.70;99.90;;;;;;5198537;28;20039;-63
2022/08/25 05:38:29;;;;;;;10.30;6.72;;;21.80;99.90;;;;;;5205520;28;20039;-62
2022/08/25 05:41:11;;;;;;;10.75;6.63;;;21.70;99.90;;;;;;5222544;28;20168;-62
2022/08/25 05:43:45;;;;;;;10.48;6.22;;;21.80;99.90;;;;;;5226277;28;20033;-62
2022/08/25 05:46:23;;;;;;;10.07;5.82;;;21.80;99.90;;;;;;5184897;28;20374;-62
2022/08/25 05:48:54;;;;;;;8.60;6.05;;;21.80;99.90;;;;;;5196730;28;20020;-62
2022/08/25 05:51:26;;;;;;;9.25;6.93;;;21.90;99.90;;;;;;5211518;28;20225;-62
2022/08/25 05:54:00;;;;;;;9.40;6.22;;;21.90;99.90;;;;;;5202187;28;20035;-64
2022/08/25 05:56:33;;;;;;;8.65;6.07;;;21.90;99.90;;;;;;5185655;28;20036;-63
2022/08/25 05:59:07;;;;;;;11.83;6.43;;;21.70;99.90;;;;;;5199051;28;20032;-63
2022/08/25 06:04:48;;;;;;;11.30;5.70;;;21.50;99.90;;;;;;5211840;28;20040;-62
2022/08/25 06:07:20;;;;;;;10.10;5.95;;;21.50;99.90;;;;;;5217485;28;20237;-62
2022/08/25 06:09:54;;;;;;;9.05;6.05;;;21.50;99.90;;;;;;5238991;28;20024;-63
2022/08/25 06:12:25;;;;;;;10.38;6.72;;;21.50;99.90;;;;;;5198451;28;20288;-63
2022/08/25 06:14:56;;;;;;;10.82;6.60;;;21.50;99.90;;;;;;5199942;28;20336;-62
2022/08/25 06:17:30;;;;;;;11.45;6.57;;;21.50;99.90;;;;;;5200819;28;20028;-63
2022/08/25 06:20:05;;;;;;;10.40;5.75;;;21.50;99.90;;;;;;5210967;28;20041;-62
2022/08/25 06:22:42;;;;;;;13.85;7.30;;;21.50;99.90;;;;;;5219190;28;20033;-62
2022/08/25 06:25:15;;;;;;;9.75;6.53;;;21.50;99.90;;;;;;5218256;28;20054;-64
2022/08/25 06:27:48;;;;;;;9.60;6.13;;;21.50;99.90;;;;;;5204259;28;20021;-62
2022/08/25 06:30:24;;;;;;;8.65;6.53;;;21.70;99.90;;;;;;5197615;28;20246;-63
2022/08/25 06:32:57;;;;;;;9.95;5.88;;;21.80;99.90;;;;;;5197697;28;20302;-62
2022/08/25 06:35:30;;;;;;;9.35;6.35;;;22.00;99.90;;;;;;5210447;28;20027;-62
2022/08/25 06:38:01;;;;;;;9.63;6.53;;;22.10;99.90;;;;;;5184756;28;20037;-63
2022/08/25 06:40:33;;;;;;;8.70;6.47;;;22.10;99.90;;;;;;5200609;28;20290;-64
2022/08/25 06:43:07;;;;;;;17.73;6.43;;;22.30;99.90;;;;;;5208071;28;20262;-65
2022/08/25 06:45:38;;;;;;;17.33;6.68;;;22.30;99.90;;;;;;5219120;28;20036;-63
2022/08/25 06:48:12;;;;;;;11.43;6.05;;;22.20;99.90;;;;;;5228460;28;20035;-63
2022/08/25 06:50:44;;;;;;;14.68;5.93;;;22.10;99.90;;;;;;5231338;28;20212;-63
2022/08/25 06:53:15;;;;;;;13.00;8.13;;;22.10;99.90;;;;;;5238243;28;20329;-63
2022/08/25 06:56:02;;;;;;;14.75;7.10;;;22.10;99.90;;;;;;5203679;28;20025;-62
2022/08/25 06:58:36;;;;;;;15.02;7.32;;;22.20;99.90;;;;;;5236075;28;20024;-63
2022/08/25 07:01:10;;;;;;;15.60;6.97;;;22.30;99.90;;;;;;5220761;28;20028;-63
2022/08/25 07:03:45;;;;;;;16.92;6.90;;;22.50;99.90;;;;;;5220065;28;20047;-63
2022/08/25 07:06:21;;;;;;;11.68;7.07;;;22.50;99.90;;;;;;5188373;28;20376;-62
2022/08/25 07:08:58;;;;;;;10.40;6.85;;;22.80;99.90;;;;;;5238393;28;20024;-63
2022/08/25 07:11:33;;;;;;;9.57;6.38;;;23.00;99.90;;;;;;5231830;28;20299;-63
2022/08/25 07:14:06;;;;;;;9.52;6.45;;;23.10;99.90;;;;;;5179094;28;20370;-63
2022/08/25 07:16:42;;;;;;;8.57;5.43;;;23.00;99.90;;;;;;5184484;28;20298;-63
2022/08/25 07:19:13;;;;;;;11.63;6.47;;;23.10;99.90;;;;;;5213062;28;20029;-63
2022/08/25 07:21:45;;;;;;;7.57;6.10;;;23.30;99.90;;;;;;5238008;28;20204;-65
2022/08/25 07:24:17;;;;;;;18.98;7.18;;;23.30;99.90;;;;;;5223726;28;20041;-63
2022/08/25 07:26:48;;;;;;;13.27;7.20;;;23.20;99.90;;;;;;5212728;28;20029;-64
2022/08/25 07:29:23;;;;;;;15.40;7.40;;;22.90;99.90;;;;;;5216323;28;20020;-64
2022/08/25 07:31:57;;;;;;;16.58;7.25;;;22.90;99.90;;;;;;5213027;28;20292;-63
2022/08/25 07:37:27;;;;;;;19.85;8.70;;;22.90;99.90;;;;;;5217606;28;20024;-62
2022/08/25 07:40:02;;;;;;;12.07;7.97;;;22.60;99.90;;;;;;5182445;28;20060;-63
2022/08/25 07:42:34;;;;;;;15.25;7.05;;;22.40;99.90;;;;;;5216859;28;20191;-63
2022/08/25 07:45:14;;;;;;;15.93;7.47;;;22.50;99.90;;;;;;5205853;28;20024;-63
2022/08/25 07:47:52;;;;;;;18.55;8.07;;;22.70;99.90;;;;;;5209413;28;20039;-62
2022/08/25 07:50:28;;;;;;;18.23;7.22;;;23.10;99.90;;;;;;5201938;28;20044;-63
2022/08/25 07:53:02;;;;;;;20.45;7.43;;;23.30;99.90;;;;;;5209379;28;20027;-63
2022/08/25 07:55:35;;;;;;;14.10;6.38;;;23.40;99.90;;;;;;5201643;28;20039;-63
2022/08/25 07:58:07;;;;;;;13.02;6.80;;;23.30;99.90;;;;;;5204548;28;20016;-63
2022/08/25 08:00:43;;;;;;;17.02;7.93;;;23.40;99.90;;;;;;5216137;28;20345;-62
2022/08/25 08:03:16;;;;;;;15.90;7.40;;;23.30;99.90;;;;;;5216623;28;20027;-62
2022/08/25 08:05:50;;;;;;;17.30;7.28;;;23.30;99.90;;;;;;5223282;28;20041;-63
2022/08/25 08:08:21;;;;;;;;;;;23.30;99.90;;;;;;5234091;28;20363;-61
2022/08/25 08:10:58;;;;;;;14.40;7.78;;;23.20;99.90;;;;;;5198861;28;19904;-62
2022/08/25 08:13:35;;;;;;;12.82;7.50;;;23.30;99.90;;;;;;5224542;28;20027;-64
2022/08/25 08:16:11;;;;;;;13.38;7.20;;;23.30;99.90;;;;;;5224783;28;20025;-62
2022/08/25 08:18:46;;;;;;;12.35;7.35;;;22.90;99.90;;;;;;5219731;28;20035;-62
2022/08/25 08:21:23;;;;;;;12.95;7.18;;;22.90;99.90;;;;;;5224711;28;20012;-63
2022/08/25 08:24:01;;;;;;;22.42;9.38;;;23.00;99.90;;;;;;5219146;28;20021;-63
2022/08/25 08:26:34;;;;;;;13.73;8.43;;;22.90;99.90;;;;;;5215944;28;20194;-63
2022/08/25 08:29:11;;;;;;;15.80;8.68;;;22.80;99.90;;;;;;5201781;28;20356;-62
2022/08/25 08:31:42;;;;;;;12.63;6.55;;;22.80;99.90;;;;;;5217432;28;20031;-65
2022/08/25 08:34:14;;;;;;;16.17;6.63;;;22.90;99.90;;;;;;5198959;28;20033;-63
2022/08/25 08:36:49;;;;;;;16.05;7.22;;;23.00;99.90;;;;;;5198647;28;20024;-63
2022/08/25 08:39:24;;;;;;;13.25;6.60;;;23.20;99.90;;;;;;5213320;28;20027;-63
2022/08/25 08:42:17;;;;;;;12.98;6.82;;;23.60;99.90;;;;;;5201603;28;20025;-63
2022/08/25 08:45:31;;;;;;;9.18;6.50;;;23.50;99.90;;;;;;5216524;28;20309;-62
2022/08/25 08:48:46;;;;;;;11.60;6.68;;;23.50;99.90;;;;;;5152875;28;20026;-63
2022/08/25 08:51:25;;;;;;;8.70;5.47;;;23.80;99.90;;;;;;5092015;29;20369;-62
2022/08/25 08:54:12;;;;;;;11.07;5.03;;;23.90;99.90;;;;;;5092209;29;20312;-63
2022/08/25 08:56:49;;;;;;;7.25;5.10;;;24.30;99.90;;;;;;5085957;29;20225;-63
2022/08/25 08:59:28;;;;;;;9.13;5.40;;;24.60;99.90;;;;;;5103363;29;20031;-63
2022/08/25 09:02:11;;;;;;;9.73;6.35;;;24.80;99.90;;;;;;5152276;28;20039;-63
2022/08/25 09:05:11;;;;;;;18.40;5.07;;;25.00;99.90;;;;;;5199609;28;20358;-63
2022/08/25 09:07:52;;;;;;;10.55;4.90;;;26.00;99.90;;;;;;5193966;28;20215;-62
2022/08/25 09:10:27;;;;;;;9.13;5.78;;;26.90;99.90;;;;;;5190944;28;20033;-63
2022/08/25 09:13:05;;;;;;;7.15;4.90;;;26.60;99.90;;;;;;5176014;28;20040;-63
2022/08/25 09:18:48;;;;;;;6.82;5.20;;;27.50;99.90;;;;;;5192318;28;20331;-63
2022/08/25 09:21:36;;;;;;;9.48;4.28;;;27.70;99.90;;;;;;5176069;28;20036;-63
2022/08/25 09:24:22;;;;;;;7.70;4.78;;;28.10;99.90;;;;;;5217108;28;20036;-63
2022/08/25 09:27:13;;;;;;;9.50;4.82;;;28.60;99.90;;;;;;5218138;28;20020;-62
2022/08/25 09:30:00;;;;;;;9.73;6.28;;;28.80;99.90;;;;;;5214734;28;20036;-63
2022/08/25 09:32:46;;;;;;;12.82;6.40;;;29.30;99.90;;;;;;5194040;28;20030;-64
2022/08/25 09:35:21;;;;;;;12.68;5.25;;;28.60;99.90;;;;;;5214088;28;20025;-64
2022/08/25 09:38:02;;;;;;;9.90;5.70;;;28.50;99.90;;;;;;5199655;28;20019;-65
2022/08/25 09:40:38;;;;;;;12.02;6.03;;;28.70;99.90;;;;;;5216090;28;20017;-64
2022/08/25 09:43:18;;;;;;;9.43;4.93;;;29.70;99.90;;;;;;5206478;28;20033;-64
2022/08/25 09:46:11;;;;;;;11.40;5.25;;;30.70;99.90;;;;;;5236979;28;20251;-63
2022/08/25 09:48:54;;;;;;;7.53;4.95;;;31.20;99.90;;;;;;5206114;28;20199;-63
2022/08/25 09:51:28;;;;;;;9.88;5.75;;;30.10;99.90;;;;;;5196629;28;20044;-63
2022/08/25 09:54:25;;;;;;;11.68;5.50;;;29.20;99.90;;;;;;5218759;28;20317;-64
2022/08/25 09:57:00;;;;;;;12.32;5.32;;;28.90;99.90;;;;;;5198101;28;20401;-63
2022/08/25 09:59:35;;;;;;;6.88;4.90;;;28.70;99.90;;;;;;5200907;28;20314;-63
2022/08/25 10:02:27;;;;;;;;;;;29.90;99.90;;;;;;5207857;28;20278;-63
2022/08/25 10:05:03;;;;;;;6.97;4.65;;;30.50;99.90;;;;;;5186903;28;19923;-63
2022/08/25 10:07:46;;;;;;;8.63;5.10;;;30.80;99.90;;;;;;5202521;28;20036;-63
2022/08/25 10:10:33;;;;;;;6.90;4.63;;;30.40;99.90;;;;;;5219013;28;20013;-63
2022/08/25 10:13:13;;;;;;;5.95;4.50;;;30.60;99.90;;;;;;5208471;28;20031;-64
2022/08/25 10:16:02;;;;;;;7.85;4.57;;;30.30;99.90;;;;;;5197438;28;20033;-64
2022/08/25 10:18:33;;;;;;;8.35;4.68;;;29.30;99.90;;;;;;5199691;28;20059;-63
2022/08/25 10:21:13;;;;;;;8.98;4.45;;;28.50;99.90;;;;;;5200343;28;20342;-63
2022/08/25 10:23:48;;;;;;;7.57;4.15;;;29.10;99.90;;;;;;5191420;28;20041;-63
2022/08/25 10:26:47;;;;;;;8.52;4.07;;;30.20;99.90;;;;;;5221669;28;20213;-63
2022/08/25 10:29:59;;;;;;;5.15;3.92;;;31.00;99.90;;;;;;5221810;28;20024;-64
2022/08/25 10:32:57;;;;;;;7.82;4.38;;;33.10;99.90;;;;;;5230506;28;20055;-64
2022/08/25 10:35:57;;;;;;;5.07;3.47;;;35.40;99.90;;;;;;5228166;28;20023;-63
2022/08/25 10:38:37;;;;;;;6.10;3.88;;;35.40;99.90;;;;;;5200912;28;20172;-63
2022/08/25 10:41:36;;;;;;;5.82;4.13;;;36.10;99.90;;;;;;5190343;28;20048;-63
2022/08/25 10:45:41;;;;;;;9.75;4.13;;;37.10;99.90;;;;;;5200919;28;20319;-65
2022/08/25 10:47:20;;;;;;;10.98;5.10;;;37.40;99.90;;;;;;5219020;28;20120;-65
2022/08/25 10:50:18;;;;;;;7.68;4.78;;;36.00;99.90;;;;;;5218112;28;20032;-64
2022/08/25 10:53:00;;;;;;;12.45;5.05;;;35.20;99.90;;;;;;5218569;28;20025;-63
2022/08/25 10:56:20;;;;;;;6.13;4.30;;;35.80;99.90;;;;;;5217845;28;20116;-64
2022/08/25 10:59:12;;;;;;;6.32;4.28;;;37.70;99.90;;;;;;5209774;28;20025;-63
2022/08/25 11:02:05;;;;;;;7.60;4.25;;;37.00;99.90;;;;;;5237593;28;20064;-63
2022/08/25 11:04:36;;;;;;;6.80;3.85;;;38.90;99.90;;;;;;5207354;28;20111;-64
2022/08/25 11:07:30;;;;;;;4.03;3.63;;;38.30;99.90;;;;;;5227608;28;20029;-64
2022/08/25 11:10:14;;;;;;;9.82;4.53;;;37.10;99.90;;;;;;5211415;28;20035;-65
2022/08/25 11:12:53;;;;;;;7.40;3.53;;;35.90;99.90;;;;;;5195296;28;20037;-65
2022/08/25 11:15:32;;;;;;;5.28;3.70;;;34.40;99.90;;;;;;5199445;28;20043;-63
2022/08/25 11:18:08;;;;;;;7.03;4.22;;;34.10;99.90;;;;;;5164496;28;20029;-64
2022/08/25 11:20:57;;;;;;;8.05;4.25;;;35.20;99.90;;;;;;5183584;28;20033;-64
2022/08/25 11:23:38;;;;;;;8.32;3.95;;;36.70;99.90;;;;;;5183429;28;20252;-64
2022/08/25 11:26:13;;;;;;;4.10;3.13;;;37.60;99.90;;;;;;5200005;28;20035;-65
2022/08/25 11:28:57;;;;;;;4.57;3.30;;;39.70;99.90;;;;;;5197061;28;20039;-64
2022/08/25 11:31:32;;;;;;;5.45;3.42;;;40.20;99.90;;;;;;5204009;28;20040;-63
2022/08/25 11:34:08;;;;;;;6.05;3.70;;;39.90;99.90;;;;;;5235600;28;20035;-63
2022/08/25 11:37:07;;;;;;;8.40;4.10;;;40.60;99.90;;;;;;5202590;28;20298;-62
2022/08/25 11:40:16;;;;;;;4.15;3.67;;;40.80;99.90;;;;;;5187784;28;20039;-64
2022/08/25 11:42:50;;;;;;;5.40;3.33;;;41.10;99.90;;;;;;5217466;28;20024;-64
2022/08/25 11:45:42;;;;;;;6.35;3.85;;;40.60;99.90;;;;;;5214815;28;20277;-63
2022/08/25 11:48:22;;;;;;;7.85;4.65;;;39.50;99.90;;;;;;5220489;28;20039;-65
2022/08/25 11:51:29;;;;;;;6.97;3.88;;;39.90;99.90;;;;;;5220724;28;20036;-64
2022/08/25 11:54:18;;;;;;;5.57;3.67;;;39.80;99.90;;;;;;5211259;28;20042;-65
2022/08/25 11:56:54;;;;;;;6.05;4.07;;;39.70;99.90;;;;;;5238795;28;20210;-65
2022/08/25 11:59:58;;;;;;;6.93;4.30;;;40.50;99.90;;;;;;5205029;28;20047;-63
2022/08/25 12:02:41;;;;;;;9.55;3.65;;;39.50;99.90;;;;;;5202529;28;20029;-64
2022/08/25 12:05:21;;;;;;;4.80;3.55;;;39.60;99.90;;;;;;5209346;28;20070;-64
2022/08/25 12:08:37;;;;;;;4.75;3.15;;;39.90;99.90;;;;;;5193426;28;20024;-63
2022/08/25 12:11:06;;;;;;;6.45;3.33;;;40.70;99.90;;;;;;5237610;28;20020;-63
2022/08/25 12:13:50;;;;;;;5.70;3.47;;;41.60;99.90;;;;;;5207297;28;20364;-64
2022/08/25 12:16:34;;;;;;;4.20;3.50;;;41.50;99.90;;;;;;5183196;28;20289;-65
2022/08/25 12:19:29;;;;;;;4.05;3.58;;;39.40;99.90;;;;;;5235939;28;20405;-63
2022/08/25 12:22:06;;;;;;;4.70;3.00;;;36.10;99.90;;;;;;5220414;28;20028;-63
2022/08/25 12:24:48;;;;;;;3.30;2.95;;;35.40;99.90;;;;;;5229357;28;20055;-63
2022/08/25 12:27:38;;;;;;;3.10;2.70;;;35.30;99.90;;;;;;5206608;28;20292;-64
2022/08/25 12:30:16;;;;;;;4.72;3.17;;;34.80;99.90;;;;;;5221092;28;20237;-64
2022/08/25 12:32:57;;;;;;;4.30;2.95;;;35.60;99.90;;;;;;5186678;28;20036;-64
2022/08/25 12:35:34;;;;;;;3.67;2.78;;;36.90;99.90;;;;;;5197230;28;20325;-65
2022/08/25 12:38:14;;;;;;;3.97;3.08;;;37.90;99.90;;;;;;5205519;28;20055;-65
2022/08/25 12:40:45;;;;;;;4.55;2.65;;;38.10;99.90;;;;;;5238265;28;20019;-63
2022/08/25 12:43:28;;;;;;;3.05;2.70;;;37.60;99.90;;;;;;5227901;28;20336;-64
2022/08/25 12:46:28;;;;;;;3.78;3.28;;;37.80;99.90;;;;;;5182014;28;20025;-64
2022/08/25 12:49:14;;;;;;;4.80;3.40;;;37.70;99.90;;;;;;5178206;28;20029;-64
2022/08/25 12:52:04;;;;;;;5.72;3.70;;;39.00;99.90;;;;;;5196818;28;20188;-64
2022/08/25 12:54:46;;;;;;;5.15;2.97;;;40.60;99.90;;;;;;5178562;28;20055;-64
2022/08/25 12:57:56;;;;;;;6.75;3.22;;;41.50;99.90;;;;;;5196535;28;20017;-64
2022/08/25 13:00:51;;;;;;;5.85;3.38;;;41.30;99.90;;;;;;5162787;28;20026;-64
2022/08/25 13:03:56;;;;;;;5.03;4.05;;;42.50;99.90;;;;;;5212423;28;20034;-65
2022/08/25 13:06:52;;;;;;;5.68;3.22;;;42.90;99.90;;;;;;5222449;28;20308;-65
2022/08/25 13:09:54;;;;;;;4.53;3.17;;;41.80;99.90;;;;;;5219649;28;20290;-64
2022/08/25 13:12:54;;;;;;;5.40;3.30;;;40.90;99.90;;;;;;5230457;28;20035;-63
2022/08/25 13:15:36;;;;;;;3.53;3.22;;;40.10;99.90;;;;;;5217104;28;20320;-63
2022/08/25 13:18:19;;;;;;;5.70;3.47;;;38.40;99.90;;;;;;5216836;28;20021;-64
2022/08/25 13:21:10;;;;;;;5.10;3.70;;;38.30;99.90;;;;;;5193630;28;20029;-63
2022/08/25 13:23:51;;;;;;;4.00;3.10;;;36.10;99.90;;;;;;5174325;28;20079;-65
2022/08/25 13:26:38;;;;;;;6.65;3.50;;;35.20;99.90;;;;;;5211524;28;20021;-65
2022/08/25 13:29:21;;;;;;;7.22;3.72;;;34.90;99.90;;;;;;5216348;28;20017;-64
2022/08/25 13:31:55;;;;;;;6.25;3.67;;;34.50;99.90;;;;;;5220273;28;20432;-64
2022/08/25 13:34:36;;;;;;;5.78;3.40;;;33.90;99.90;;;;;;5203957;28;20337;-64
2022/08/25 13:37:27;;;;;;;5.38;3.22;;;33.70;99.90;;;;;;5202527;28;20032;-64
2022/08/25 13:40:22;;;;;;;5.18;2.75;;;34.30;99.90;;;;;;5215494;28;20344;-65
2022/08/25 13:43:16;;;;;;;5.13;2.97;;;35.40;99.90;;;;;;5236815;28;20354;-64
2022/08/25 13:45:48;;;;;;;8.32;3.20;;;37.20;99.90;;;;;;5202611;28;20195;-64
2022/08/25 13:48:40;;;;;;;5.30;2.63;;;37.70;99.90;;;;;;5236879;28;20343;-64
2022/08/25 13:51:25;;;;;;;3.45;3.15;;;37.40;99.90;;;;;;5217578;28;20241;-64
2022/08/25 13:54:07;;;;;;;4.38;2.90;;;36.60;99.90;;;;;;5212645;28;20039;-65
2022/08/25 13:56:44;;;;;;;3.22;2.78;;;34.90;99.90;;;;;;5220450;28;20272;-63
2022/08/25 13:59:36;;;;;;;5.13;2.55;;;35.10;99.90;;;;;;5212736;28;20292;-66